sensor_id;sensor_type;location;lat;lon;timestamp;temperature;humidity
5828;DHT22;42583;50.240;8.444;2023-07-28T00:08:56;15.30;99.90
5828;DHT22;42583;50.240;8.444;2023-07-28T00:23:56;15.30;99.90
5828;DHT22;42583;50.240;8.444;2023-07-28T00:38:57;15.30;99.90
5828;DHT22;42583;50.240;8.444;2023-07-28T00:53:58;15.30;99.90
5828;DHT22;42583;50.240;8.444;2023-07-28T01:09:04;15.30;99.90
5828;DHT22;42583;50.240;8.444;2023-07-28T01:39:07;15.40;99.90
5828;DHT22;42583;50.240;8.444;2023-07-28T01:54:07;15.40;99.90
5828;DHT22;42583;50.240;8.444;2023-07-28T02:09:08;15.50;99.90
5828;DHT22;42583;50.240;8.444;2023-07-28T02:24:08;15.40;99.90
5828;DHT22;42583;50.240;8.444;2023-07-28T02:39:09;15.40;99.90
5828;DHT22;42583;50.240;8.444;2023-07-28T02:54:09;15.30;99.90
5828;DHT22;42583;50.240;8.444;2023-07-28T03:09:10;15.40;99.90
5828;DHT22;42583;50.240;8.444;2023-07-28T03:24:10;15.50;99.90
5828;DHT22;42583;50.240;8.444;2023-07-28T03:39:11;15.50;99.90
5828;DHT22;42583;50.240;8.444;2023-07-28T03:54:11;15.50;99.90
5828;DHT22;42583;50.240;8.444;2023-07-28T04:09:13;15.50;99.90
5828;DHT22;42583;50.240;8.444;2023-07-28T04:24:13;15.60;99.90
5828;DHT22;42583;50.240;8.444;2023-07-28T04:39:14;15.60;99.90
5828;DHT22;42583;50.240;8.444;2023-07-28T04:54:14;15.60;99.90
5828;DHT22;42583;50.240;8.444;2023-07-28T05:09:14;15.70;99.90
5828;DHT22;42583;50.240;8.444;2023-07-28T05:24:15;15.80;99.90
5828;DHT22;42583;50.240;8.444;2023-07-28T05:39:16;15.80;99.90
5828;DHT22;42583;50.240;8.444;2023-07-28T05:54:16;15.80;99.90
5828;DHT22;42583;50.240;8.444;2023-07-28T06:09:17;15.90;99.90
5828;DHT22;42583;50.240;8.444;2023-07-28T06:24:17;16.00;99.90
5828;DHT22;42583;50.240;8.444;2023-07-28T06:39:18;16.20;99.90
5828;DHT22;42583;50.240;8.444;2023-07-28T06:54:18;16.50;99.90
5828;DHT22;42583;50.240;8.444;2023-07-28T07:09:18;16.70;99.90
5828;DHT22;42583;50.240;8.444;2023-07-28T07:24:20;16.80;99.90
5828;DHT22;42583;50.240;8.444;2023-07-28T07:39:21;16.90;99.90
5828;DHT22;42583;50.240;8.444;2023-07-28T07:54:21;17.00;99.90
5828;DHT22;42583;50.240;8.444;2023-07-28T08:09:22;17.10;99.90
5828;DHT22;42583;50.240;8.444;2023-07-28T08:24:22;17.20;99.90
5828;DHT22;42583;50.240;8.444;2023-07-28T08:39:23;17.20;99.90
5828;DHT22;42583;50.240;8.444;2023-07-28T08:54:24;17.30;99.90
5828;DHT22;42583;50.240;8.444;2023-07-28T09:09:24;17.40;99.90
5828;DHT22;42583;50.240;8.444;2023-07-28T09:24:32;17.50;99.90
5828;DHT22;42583;50.240;8.444;2023-07-28T09:39:32;17.90;99.90
5828;DHT22;42583;50.240;8.444;2023-07-28T09:54:34;18.20;99.90
5828;DHT22;42583;50.240;8.444;2023-07-28T10:09:36;18.40;99.90
5828;DHT22;42583;50.240;8.444;2023-07-28T10:40:21;19.60;99.90
5828;DHT22;42583;50.240;8.444;2023-07-28T11:10:13;19.50;99.90
5828;DHT22;42583;50.240;8.444;2023-07-28T11:25:17;20.50;99.90
5828;DHT22;42583;50.240;8.444;2023-07-28T11:40:19;20.00;99.90
5828;DHT22;42583;50.240;8.444;2023-07-28T11:55:20;20.40;99.90
5828;DHT22;42583;50.240;8.444;2023-07-28T12:10:21;20.20;99.90
5828;DHT22;42583;50.240;8.444;2023-07-28T12:25:21;19.90;99.90
5828;DHT22;42583;50.240;8.444;2023-07-28T12:40:22;19.90;99.90
5828;DHT22;42583;50.240;8.444;2023-07-28T12:55:22;19.80;99.90
5828;DHT22;42583;50.240;8.444;2023-07-28T13:10:23;19.50;99.90
5828;DHT22;42583;50.240;8.444;2023-07-28T13:25:23;19.40;99.90
5828;DHT22;42583;50.240;8.444;2023-07-28T13:40:24;19.10;99.90
5828;DHT22;42583;50.240;8.444;2023-07-28T13:55:24;19.20;99.90
5828;DHT22;42583;50.240;8.444;2023-07-28T14:10:25;18.90;99.90
5828;DHT22;42583;50.240;8.444;2023-07-28T14:25:26;19.30;99.90
5828;DHT22;42583;50.240;8.444;2023-07-28T14:40:27;19.60;99.90
5828;DHT22;42583;50.240;8.444;2023-07-28T14:55:27;19.60;99.90
5828;DHT22;42583;50.240;8.444;2023-07-28T15:10:28;19.50;99.90
5828;DHT22;42583;50.240;8.444;2023-07-28T15:25:28;19.50;99.90
5828;DHT22;42583;50.240;8.444;2023-07-28T15:40:29;19.20;99.90
5828;DHT22;42583;50.240;8.444;2023-07-28T15:55:31;19.20;99.90
5828;DHT22;42583;50.240;8.444;2023-07-28T16:10:31;19.40;99.90
5828;DHT22;42583;50.240;8.444;2023-07-28T16:25:32;19.30;99.90
5828;DHT22;42583;50.240;8.444;2023-07-28T16:40:32;19.10;99.90
5828;DHT22;42583;50.240;8.444;2023-07-28T16:55:33;19.00;99.90
5828;DHT22;42583;50.240;8.444;2023-07-28T17:10:33;19.10;99.90
5828;DHT22;42583;50.240;8.444;2023-07-28T17:25:34;19.00;99.90
5828;DHT22;42583;50.240;8.444;2023-07-28T17:40:34;18.90;99.90
5828;DHT22;42583;50.240;8.444;2023-07-28T17:55:35;18.90;99.90
5828;DHT22;42583;50.240;8.444;2023-07-28T18:10:35;18.90;99.90
5828;DHT22;42583;50.240;8.444;2023-07-28T18:25:36;18.80;99.90
5828;DHT22;42583;50.240;8.444;2023-07-28T18:40:36;18.60;99.90
5828;DHT22;42583;50.240;8.444;2023-07-28T18:55:37;18.40;99.90
5828;DHT22;42583;50.240;8.444;2023-07-28T19:10:37;18.30;99.90
5828;DHT22;42583;50.240;8.444;2023-07-28T19:25:38;18.30;99.90
5828;DHT22;42583;50.240;8.444;2023-07-28T19:40:39;18.20;99.90
5828;DHT22;42583;50.240;8.444;2023-07-28T19:55:40;18.20;99.90
5828;DHT22;42583;50.240;8.444;2023-07-28T20:10:40;18.10;99.90
5828;DHT22;42583;50.240;8.444;2023-07-28T20:25:41;18.00;99.90
5828;DHT22;42583;50.240;8.444;2023-07-28T20:40:41;18.00;99.90
5828;DHT22;42583;50.240;8.444;2023-07-28T20:55:42;18.00;99.90
5828;DHT22;42583;50.240;8.444;2023-07-28T21:10:42;17.90;99.90
5828;DHT22;42583;50.240;8.444;2023-07-28T21:25:43;17.80;99.90
5828;DHT22;42583;50.240;8.444;2023-07-28T21:40:43;17.60;99.90
5828;DHT22;42583;50.240;8.444;2023-07-28T21:55:45;17.50;99.90
5828;DHT22;42583;50.240;8.444;2023-07-28T22:10:45;17.50;99.90
5828;DHT22;42583;50.240;8.444;2023-07-28T22:25:46;17.50;99.90
5828;DHT22;42583;50.240;8.444;2023-07-28T22:40:46;17.50;99.90
5828;DHT22;42583;50.240;8.444;2023-07-28T22:55:47;17.50;99.90
5828;DHT22;42583;50.240;8.444;2023-07-28T23:10:47;17.50;99.90
5828;DHT22;42583;50.240;8.444;2023-07-28T23:25:48;17.40;99.90
5828;DHT22;42583;50.240;8.444;2023-07-28T23:40:48;17.40;99.90
5828;DHT22;42583;50.240;8.444;2023-07-28T23:55:49;17.30;99.90
